sensor_id;sensor_type;location;lat;lon;timestamp;temperature;humidity
42031;DHT22;27709;52.036;5.906;2022-08-25T00:00:42;22.60;93.10
42031;DHT22;27709;52.036;5.906;2022-08-25T00:03:09;22.60;93.10
42031;DHT22;27709;52.036;5.906;2022-08-25T00:05:34;22.60;93.20
42031;DHT22;27709;52.036;5.906;2022-08-25T00:08:01;22.50;93.20
42031;DHT22;27709;52.036;5.906;2022-08-25T00:10:28;22.50;93.10
42031;DHT22;27709;52.036;5.906;2022-08-25T00:12:54;22.50;93.10
42031;DHT22;27709;52.036;5.906;2022-08-25T00:15:20;22.50;93.10
42031;DHT22;27709;52.036;5.906;2022-08-25T00:17:47;22.50;93.10
42031;DHT22;27709;52.036;5.906;2022-08-25T00:20:14;22.40;93.00
42031;DHT22;27709;52.036;5.906;2022-08-25T00:22:40;22.40;93.00
42031;DHT22;27709;52.036;5.906;2022-08-25T00:25:06;22.40;93.10
42031;DHT22;27709;52.036;5.906;2022-08-25T00:27:31;22.30;93.00
42031;DHT22;27709;52.036;5.906;2022-08-25T00:29:57;22.20;93.00
42031;DHT22;27709;52.036;5.906;2022-08-25T00:32:24;22.20;93.20
42031;DHT22;27709;52.036;5.906;2022-08-25T00:34:51;22.10;93.10
42031;DHT22;27709;52.036;5.906;2022-08-25T00:37:17;22.00;93.20
42031;DHT22;27709;52.036;5.906;2022-08-25T00:39:43;22.00;93.30
42031;DHT22;27709;52.036;5.906;2022-08-25T00:42:09;21.90;93.40
42031;DHT22;27709;52.036;5.906;2022-08-25T00:44:35;21.90;93.50
42031;DHT22;27709;52.036;5.906;2022-08-25T00:47:02;21.80;93.40
42031;DHT22;27709;52.036;5.906;2022-08-25T00:49:50;21.80;93.40
42031;DHT22;27709;52.036;5.906;2022-08-25T00:52:24;21.80;93.30
42031;DHT22;27709;52.036;5.906;2022-08-25T00:54:58;21.80;93.30
42031;DHT22;27709;52.036;5.906;2022-08-25T00:57:29;21.70;93.30
42031;DHT22;27709;52.036;5.906;2022-08-25T00:59:57;21.70;93.40
42031;DHT22;27709;52.036;5.906;2022-08-25T01:02:22;21.60;93.40
42031;DHT22;27709;52.036;5.906;2022-08-25T01:04:48;21.60;93.30
42031;DHT22;27709;52.036;5.906;2022-08-25T01:07:16;21.60;93.30
42031;DHT22;27709;52.036;5.906;2022-08-25T01:09:43;21.60;93.30
42031;DHT22;27709;52.036;5.906;2022-08-25T01:12:10;21.50;93.20
42031;DHT22;27709;52.036;5.906;2022-08-25T01:14:36;21.50;93.20
42031;DHT22;27709;52.036;5.906;2022-08-25T01:17:02;21.50;93.30
42031;DHT22;27709;52.036;5.906;2022-08-25T01:19:29;21.50;93.40
42031;DHT22;27709;52.036;5.906;2022-08-25T01:21:58;21.50;93.40
42031;DHT22;27709;52.036;5.906;2022-08-25T01:24:36;21.40;93.30
42031;DHT22;27709;52.036;5.906;2022-08-25T01:27:03;21.40;93.30
42031;DHT22;27709;52.036;5.906;2022-08-25T01:29:29;21.40;93.30
42031;DHT22;27709;52.036;5.906;2022-08-25T01:32:01;21.30;93.20
42031;DHT22;27709;52.036;5.906;2022-08-25T01:34:29;21.30;93.30
42031;DHT22;27709;52.036;5.906;2022-08-25T01:36:57;21.20;93.30
42031;DHT22;27709;52.036;5.906;2022-08-25T01:39:25;21.20;93.30
42031;DHT22;27709;52.036;5.906;2022-08-25T01:44:36;21.20;93.20
42031;DHT22;27709;52.036;5.906;2022-08-25T01:47:04;21.10;93.30
42031;DHT22;27709;52.036;5.906;2022-08-25T01:49:30;21.00;93.30
42031;DHT22;27709;52.036;5.906;2022-08-25T01:52:11;21.10;93.30
42031;DHT22;27709;52.036;5.906;2022-08-25T01:54:37;21.10;93.10
42031;DHT22;27709;52.036;5.906;2022-08-25T01:57:06;21.00;93.10
42031;DHT22;27709;52.036;5.906;2022-08-25T01:59:33;21.10;93.00
42031;DHT22;27709;52.036;5.906;2022-08-25T02:02:00;21.10;92.90
42031;DHT22;27709;52.036;5.906;2022-08-25T02:04:29;21.10;92.80
42031;DHT22;27709;52.036;5.906;2022-08-25T02:06:59;21.20;92.80
42031;DHT22;27709;52.036;5.906;2022-08-25T02:09:26;21.20;92.80
42031;DHT22;27709;52.036;5.906;2022-08-25T02:11:56;21.20;92.80
42031;DHT22;27709;52.036;5.906;2022-08-25T02:14:22;21.20;92.80
42031;DHT22;27709;52.036;5.906;2022-08-25T02:16:51;21.20;92.80
42031;DHT22;27709;52.036;5.906;2022-08-25T02:19:19;21.20;92.80
42031;DHT22;27709;52.036;5.906;2022-08-25T02:21:45;21.20;92.70
42031;DHT22;27709;52.036;5.906;2022-08-25T02:24:14;21.20;92.60
42031;DHT22;27709;52.036;5.906;2022-08-25T02:26:44;21.20;92.40
42031;DHT22;27709;52.036;5.906;2022-08-25T02:29:14;21.20;92.30
42031;DHT22;27709;52.036;5.906;2022-08-25T02:31:44;21.20;92.10
42031;DHT22;27709;52.036;5.906;2022-08-25T02:34:15;21.20;91.90
42031;DHT22;27709;52.036;5.906;2022-08-25T02:36:41;21.30;91.50
42031;DHT22;27709;52.036;5.906;2022-08-25T02:39:09;21.40;90.90
42031;DHT22;27709;52.036;5.906;2022-08-25T02:41:36;21.60;90.20
42031;DHT22;27709;52.036;5.906;2022-08-25T02:44:03;21.80;86.40
42031;DHT22;27709;52.036;5.906;2022-08-25T02:46:29;22.00;84.90
42031;DHT22;27709;52.036;5.906;2022-08-25T02:48:55;22.30;83.10
42031;DHT22;27709;52.036;5.906;2022-08-25T02:51:23;22.50;82.40
42031;DHT22;27709;52.036;5.906;2022-08-25T02:53:48;22.60;81.80
42031;DHT22;27709;52.036;5.906;2022-08-25T02:56:16;22.80;80.30
42031;DHT22;27709;52.036;5.906;2022-08-25T02:58:43;22.90;79.60
42031;DHT22;27709;52.036;5.906;2022-08-25T03:01:10;23.00;79.30
42031;DHT22;27709;52.036;5.906;2022-08-25T03:03:40;23.10;77.90
42031;DHT22;27709;52.036;5.906;2022-08-25T03:06:08;23.10;77.20
42031;DHT22;27709;52.036;5.906;2022-08-25T03:08:36;23.20;77.60
42031;DHT22;27709;52.036;5.906;2022-08-25T03:11:03;23.10;77.70
42031;DHT22;27709;52.036;5.906;2022-08-25T03:13:29;23.10;77.60
42031;DHT22;27709;52.036;5.906;2022-08-25T03:16:01;23.10;77.70
42031;DHT22;27709;52.036;5.906;2022-08-25T03:18:27;23.10;78.00
42031;DHT22;27709;52.036;5.906;2022-08-25T03:20:53;23.00;78.10
42031;DHT22;27709;52.036;5.906;2022-08-25T03:23:19;23.00;78.40
42031;DHT22;27709;52.036;5.906;2022-08-25T03:25:45;22.90;78.60
42031;DHT22;27709;52.036;5.906;2022-08-25T03:28:29;22.80;78.90
42031;DHT22;27709;52.036;5.906;2022-08-25T03:30:58;22.70;79.10
42031;DHT22;27709;52.036;5.906;2022-08-25T03:33:27;22.60;79.30
42031;DHT22;27709;52.036;5.906;2022-08-25T03:36:13;22.50;79.30
42031;DHT22;27709;52.036;5.906;2022-08-25T03:38:40;22.50;79.60
42031;DHT22;27709;52.036;5.906;2022-08-25T03:41:19;22.40;79.60
42031;DHT22;27709;52.036;5.906;2022-08-25T03:43:48;22.30;79.70
42031;DHT22;27709;52.036;5.906;2022-08-25T03:46:21;22.20;80.00
42031;DHT22;27709;52.036;5.906;2022-08-25T03:48:48;22.20;80.30
42031;DHT22;27709;52.036;5.906;2022-08-25T03:51:24;22.10;80.60
42031;DHT22;27709;52.036;5.906;2022-08-25T03:53:50;22.10;80.90
42031;DHT22;27709;52.036;5.906;2022-08-25T03:56:16;21.90;81.30
42031;DHT22;27709;52.036;5.906;2022-08-25T03:58:42;21.90;81.70
42031;DHT22;27709;52.036;5.906;2022-08-25T04:01:08;21.80;81.80
42031;DHT22;27709;52.036;5.906;2022-08-25T04:03:35;21.80;82.10
42031;DHT22;27709;52.036;5.906;2022-08-25T04:06:04;21.80;82.30
42031;DHT22;27709;52.036;5.906;2022-08-25T04:08:32;21.70;82.30
42031;DHT22;27709;52.036;5.906;2022-08-25T04:11:11;21.70;82.50
42031;DHT22;27709;52.036;5.906;2022-08-25T04:13:39;21.60;82.50
42031;DHT22;27709;52.036;5.906;2022-08-25T04:16:11;21.60;82.80
42031;DHT22;27709;52.036;5.906;2022-08-25T04:18:40;21.50;82.70
42031;DHT22;27709;52.036;5.906;2022-08-25T04:21:07;21.40;82.60
42031;DHT22;27709;52.036;5.906;2022-08-25T04:23:36;21.40;82.50
42031;DHT22;27709;52.036;5.906;2022-08-25T04:26:07;21.50;82.60
42031;DHT22;27709;52.036;5.906;2022-08-25T04:28:34;21.60;82.50
42031;DHT22;27709;52.036;5.906;2022-08-25T04:30:59;21.50;82.60
42031;DHT22;27709;52.036;5.906;2022-08-25T04:33:25;21.60;82.80
42031;DHT22;27709;52.036;5.906;2022-08-25T04:35:50;21.50;82.90
42031;DHT22;27709;52.036;5.906;2022-08-25T04:38:16;21.60;83.00
42031;DHT22;27709;52.036;5.906;2022-08-25T04:40:41;21.50;83.10
42031;DHT22;27709;52.036;5.906;2022-08-25T04:43:07;21.50;83.10
42031;DHT22;27709;52.036;5.906;2022-08-25T04:45:39;21.50;83.20
42031;DHT22;27709;52.036;5.906;2022-08-25T04:48:05;21.50;83.30
42031;DHT22;27709;52.036;5.906;2022-08-25T04:50:30;21.50;83.40
42031;DHT22;27709;52.036;5.906;2022-08-25T04:52:56;21.40;83.60
42031;DHT22;27709;52.036;5.906;2022-08-25T04:55:22;21.40;83.80
42031;DHT22;27709;52.036;5.906;2022-08-25T04:57:48;21.40;84.10
42031;DHT22;27709;52.036;5.906;2022-08-25T05:00:14;21.40;84.20
42031;DHT22;27709;52.036;5.906;2022-08-25T05:02:40;21.30;84.10
42031;DHT22;27709;52.036;5.906;2022-08-25T05:05:05;21.30;84.20
42031;DHT22;27709;52.036;5.906;2022-08-25T05:07:31;21.30;84.20
42031;DHT22;27709;52.036;5.906;2022-08-25T05:09:56;21.30;84.30
42031;DHT22;27709;52.036;5.906;2022-08-25T05:12:22;21.30;84.60
42031;DHT22;27709;52.036;5.906;2022-08-25T05:14:47;21.30;84.60
42031;DHT22;27709;52.036;5.906;2022-08-25T05:17:15;21.30;84.60
42031;DHT22;27709;52.036;5.906;2022-08-25T05:19:41;21.30;84.70
42031;DHT22;27709;52.036;5.906;2022-08-25T05:22:07;21.30;84.70
42031;DHT22;27709;52.036;5.906;2022-08-25T05:24:32;21.40;84.80
42031;DHT22;27709;52.036;5.906;2022-08-25T05:26:58;21.40;84.90
42031;DHT22;27709;52.036;5.906;2022-08-25T05:29:24;21.40;84.80
42031;DHT22;27709;52.036;5.906;2022-08-25T05:31:50;21.40;84.90
42031;DHT22;27709;52.036;5.906;2022-08-25T05:34:16;21.40;84.80
42031;DHT22;27709;52.036;5.906;2022-08-25T05:36:43;21.40;84.70
42031;DHT22;27709;52.036;5.906;2022-08-25T05:39:09;21.50;84.70
42031;DHT22;27709;52.036;5.906;2022-08-25T05:41:35;21.50;85.30
42031;DHT22;27709;52.036;5.906;2022-08-25T05:44:01;21.50;84.70
42031;DHT22;27709;52.036;5.906;2022-08-25T05:46:27;21.50;84.60
42031;DHT22;27709;52.036;5.906;2022-08-25T05:48:53;21.60;84.80
42031;DHT22;27709;52.036;5.906;2022-08-25T05:51:19;21.60;84.60
42031;DHT22;27709;52.036;5.906;2022-08-25T05:53:47;21.60;84.50
42031;DHT22;27709;52.036;5.906;2022-08-25T05:56:13;21.60;84.50
42031;DHT22;27709;52.036;5.906;2022-08-25T05:58:39;21.70;84.50
42031;DHT22;27709;52.036;5.906;2022-08-25T06:01:05;21.80;84.20
42031;DHT22;27709;52.036;5.906;2022-08-25T06:03:50;22.00;83.90
42031;DHT22;27709;52.036;5.906;2022-08-25T06:06:20;22.20;83.30
42031;DHT22;27709;52.036;5.906;2022-08-25T06:08:46;22.30;82.60
42031;DHT22;27709;52.036;5.906;2022-08-25T06:11:12;22.40;82.20
42031;DHT22;27709;52.036;5.906;2022-08-25T06:13:38;22.50;81.90
42031;DHT22;27709;52.036;5.906;2022-08-25T06:16:04;22.60;81.40
42031;DHT22;27709;52.036;5.906;2022-08-25T06:18:29;22.60;80.60
42031;DHT22;27709;52.036;5.906;2022-08-25T06:20:55;22.70;80.50
42031;DHT22;27709;52.036;5.906;2022-08-25T06:23:20;23.00;80.30
42031;DHT22;27709;52.036;5.906;2022-08-25T06:25:51;23.40;79.30
42031;DHT22;27709;52.036;5.906;2022-08-25T06:28:17;24.30;77.80
42031;DHT22;27709;52.036;5.906;2022-08-25T06:30:43;25.00;75.60
42031;DHT22;27709;52.036;5.906;2022-08-25T06:33:09;25.90;73.20
42031;DHT22;27709;52.036;5.906;2022-08-25T06:35:34;26.60;71.10
42031;DHT22;27709;52.036;5.906;2022-08-25T06:38:01;27.40;69.00
42031;DHT22;27709;52.036;5.906;2022-08-25T06:40:26;28.00;66.70
42031;DHT22;27709;52.036;5.906;2022-08-25T06:42:52;28.60;64.80
42031;DHT22;27709;52.036;5.906;2022-08-25T06:45:17;29.00;62.70
42031;DHT22;27709;52.036;5.906;2022-08-25T06:47:43;29.50;60.50
42031;DHT22;27709;52.036;5.906;2022-08-25T06:50:09;29.80;59.70
42031;DHT22;27709;52.036;5.906;2022-08-25T06:52:35;30.30;58.30
42031;DHT22;27709;52.036;5.906;2022-08-25T06:55:01;30.50;56.90
42031;DHT22;27709;52.036;5.906;2022-08-25T06:57:27;30.80;56.20
42031;DHT22;27709;52.036;5.906;2022-08-25T06:59:52;31.10;55.80
42031;DHT22;27709;52.036;5.906;2022-08-25T07:02:18;31.40;54.30
42031;DHT22;27709;52.036;5.906;2022-08-25T07:04:44;31.80;54.10
42031;DHT22;27709;52.036;5.906;2022-08-25T07:07:10;32.10;53.70
42031;DHT22;27709;52.036;5.906;2022-08-25T07:09:35;32.50;52.60
42031;DHT22;27709;52.036;5.906;2022-08-25T07:12:01;32.90;51.90
42031;DHT22;27709;52.036;5.906;2022-08-25T07:14:28;33.10;50.70
42031;DHT22;27709;52.036;5.906;2022-08-25T07:16:54;33.40;50.00
42031;DHT22;27709;52.036;5.906;2022-08-25T07:19:19;33.60;50.10
42031;DHT22;27709;52.036;5.906;2022-08-25T07:21:45;34.00;49.60
42031;DHT22;27709;52.036;5.906;2022-08-25T07:24:12;34.20;49.00
42031;DHT22;27709;52.036;5.906;2022-08-25T07:26:40;34.50;47.50
42031;DHT22;27709;52.036;5.906;2022-08-25T07:29:26;34.60;47.90
42031;DHT22;27709;52.036;5.906;2022-08-25T07:31:53;34.90;47.50
42031;DHT22;27709;52.036;5.906;2022-08-25T07:34:19;35.00;47.30
42031;DHT22;27709;52.036;5.906;2022-08-25T07:37:03;35.30;46.50
42031;DHT22;27709;52.036;5.906;2022-08-25T07:39:32;35.40;45.60
42031;DHT22;27709;52.036;5.906;2022-08-25T07:41:59;35.50;46.10
42031;DHT22;27709;52.036;5.906;2022-08-25T07:44:25;35.70;45.50
42031;DHT22;27709;52.036;5.906;2022-08-25T07:46:51;36.00;45.30
42031;DHT22;27709;52.036;5.906;2022-08-25T07:49:18;36.00;44.60
42031;DHT22;27709;52.036;5.906;2022-08-25T07:51:44;36.10;45.20
42031;DHT22;27709;52.036;5.906;2022-08-25T07:54:10;36.30;44.50
42031;DHT22;27709;52.036;5.906;2022-08-25T07:56:36;36.40;44.40
42031;DHT22;27709;52.036;5.906;2022-08-25T07:59:02;36.60;44.00
42031;DHT22;27709;52.036;5.906;2022-08-25T08:01:27;36.70;44.50
42031;DHT22;27709;52.036;5.906;2022-08-25T08:03:53;36.90;43.80
42031;DHT22;27709;52.036;5.906;2022-08-25T08:06:21;37.00;43.70
42031;DHT22;27709;52.036;5.906;2022-08-25T08:08:49;37.10;43.30
42031;DHT22;27709;52.036;5.906;2022-08-25T08:11:20;37.30;43.00
42031;DHT22;27709;52.036;5.906;2022-08-25T08:13:47;37.40;43.10
42031;DHT22;27709;52.036;5.906;2022-08-25T08:16:15;37.40;42.80
42031;DHT22;27709;52.036;5.906;2022-08-25T08:18:42;37.50;42.60
42031;DHT22;27709;52.036;5.906;2022-08-25T08:21:16;37.50;42.20
42031;DHT22;27709;52.036;5.906;2022-08-25T08:23:42;37.50;42.20
42031;DHT22;27709;52.036;5.906;2022-08-25T08:26:08;37.50;42.10
42031;DHT22;27709;52.036;5.906;2022-08-25T08:28:33;37.50;42.00
42031;DHT22;27709;52.036;5.906;2022-08-25T08:30:59;37.50;42.20
42031;DHT22;27709;52.036;5.906;2022-08-25T08:33:24;37.50;42.00
42031;DHT22;27709;52.036;5.906;2022-08-25T08:36:04;37.50;42.00
42031;DHT22;27709;52.036;5.906;2022-08-25T08:38:30;37.40;42.40
42031;DHT22;27709;52.036;5.906;2022-08-25T08:41:28;37.40;42.30
42031;DHT22;27709;52.036;5.906;2022-08-25T08:49:40;37.50;42.30
42031;DHT22;27709;52.036;5.906;2022-08-25T08:52:13;37.60;42.20
42031;DHT22;27709;52.036;5.906;2022-08-25T08:54:40;37.80;42.10
42031;DHT22;27709;52.036;5.906;2022-08-25T08:57:15;37.90;41.80
42031;DHT22;27709;52.036;5.906;2022-08-25T08:59:48;37.90;41.40
42031;DHT22;27709;52.036;5.906;2022-08-25T09:02:30;37.90;41.70
42031;DHT22;27709;52.036;5.906;2022-08-25T09:05:01;38.00;41.60
42031;DHT22;27709;52.036;5.906;2022-08-25T09:07:35;38.10;41.80
42031;DHT22;27709;52.036;5.906;2022-08-25T09:10:04;38.20;41.80
42031;DHT22;27709;52.036;5.906;2022-08-25T09:18:28;38.50;41.10
42031;DHT22;27709;52.036;5.906;2022-08-25T09:21:02;38.60;40.90
42031;DHT22;27709;52.036;5.906;2022-08-25T09:24:05;38.70;40.80
42031;DHT22;27709;52.036;5.906;2022-08-25T09:26:36;38.90;40.20
42031;DHT22;27709;52.036;5.906;2022-08-25T09:29:07;38.70;39.70
42031;DHT22;27709;52.036;5.906;2022-08-25T09:31:37;38.70;40.00
42031;DHT22;27709;52.036;5.906;2022-08-25T09:34:06;38.70;40.10
42031;DHT22;27709;52.036;5.906;2022-08-25T09:36:35;38.90;39.80
42031;DHT22;27709;52.036;5.906;2022-08-25T09:39:01;39.10;39.00
42031;DHT22;27709;52.036;5.906;2022-08-25T09:41:50;39.20;39.10
42031;DHT22;27709;52.036;5.906;2022-08-25T09:44:29;39.20;38.70
42031;DHT22;27709;52.036;5.906;2022-08-25T09:47:01;39.10;38.80
42031;DHT22;27709;52.036;5.906;2022-08-25T09:49:41;39.20;38.60
42031;DHT22;27709;52.036;5.906;2022-08-25T09:54:49;39.00;38.70
42031;DHT22;27709;52.036;5.906;2022-08-25T09:57:32;38.90;38.80
42031;DHT22;27709;52.036;5.906;2022-08-25T10:03:21;39.20;38.90
42031;DHT22;27709;52.036;5.906;2022-08-25T10:05:57;39.20;38.20
42031;DHT22;27709;52.036;5.906;2022-08-25T10:11:03;39.00;38.30
42031;DHT22;27709;52.036;5.906;2022-08-25T10:13:49;39.10;37.80
42031;DHT22;27709;52.036;5.906;2022-08-25T10:16:30;39.20;37.50
42031;DHT22;27709;52.036;5.906;2022-08-25T10:19:23;39.30;37.80
42031;DHT22;27709;52.036;5.906;2022-08-25T10:22:06;38.90;37.20
42031;DHT22;27709;52.036;5.906;2022-08-25T10:24:32;38.60;37.50
42031;DHT22;27709;52.036;5.906;2022-08-25T10:27:21;38.50;37.80
42031;DHT22;27709;52.036;5.906;2022-08-25T10:30:02;38.60;37.60
42031;DHT22;27709;52.036;5.906;2022-08-25T10:35:17;38.80;37.70
42031;DHT22;27709;52.036;5.906;2022-08-25T10:40:46;38.80;37.70
42031;DHT22;27709;52.036;5.906;2022-08-25T10:45:49;39.10;37.40
42031;DHT22;27709;52.036;5.906;2022-08-25T10:48:53;39.10;37.40
42031;DHT22;27709;52.036;5.906;2022-08-25T10:51:51;39.10;37.50
42031;DHT22;27709;52.036;5.906;2022-08-25T10:57:19;38.90;35.90
42031;DHT22;27709;52.036;5.906;2022-08-25T11:00:06;38.70;36.00
42031;DHT22;27709;52.036;5.906;2022-08-25T11:05:41;38.40;36.00
42031;DHT22;27709;52.036;5.906;2022-08-25T11:08:11;38.30;35.30
42031;DHT22;27709;52.036;5.906;2022-08-25T11:10:43;38.30;35.70
42031;DHT22;27709;52.036;5.906;2022-08-25T11:13:25;38.10;35.70
42031;DHT22;27709;52.036;5.906;2022-08-25T11:16:00;37.90;35.70
42031;DHT22;27709;52.036;5.906;2022-08-25T11:18:28;37.90;36.40
42031;DHT22;27709;52.036;5.906;2022-08-25T11:26:55;38.10;36.80
42031;DHT22;27709;52.036;5.906;2022-08-25T11:29:25;38.10;36.90
42031;DHT22;27709;52.036;5.906;2022-08-25T11:31:53;38.10;37.20
42031;DHT22;27709;52.036;5.906;2022-08-25T11:34:19;38.10;36.90
42031;DHT22;27709;52.036;5.906;2022-08-25T11:36:54;38.00;37.10
42031;DHT22;27709;52.036;5.906;2022-08-25T11:39:45;38.00;36.50
42031;DHT22;27709;52.036;5.906;2022-08-25T11:47:53;37.90;36.10
42031;DHT22;27709;52.036;5.906;2022-08-25T11:50:29;37.80;36.70
42031;DHT22;27709;52.036;5.906;2022-08-25T11:53:18;37.70;37.00
42031;DHT22;27709;52.036;5.906;2022-08-25T11:55:49;37.80;36.60
42031;DHT22;27709;52.036;5.906;2022-08-25T11:58:37;37.80;35.90
42031;DHT22;27709;52.036;5.906;2022-08-25T12:09:32;37.60;36.70
42031;DHT22;27709;52.036;5.906;2022-08-25T12:11:58;37.60;36.50
42031;DHT22;27709;52.036;5.906;2022-08-25T12:14:45;37.50;36.50
42031;DHT22;27709;52.036;5.906;2022-08-25T12:17:23;37.50;36.50
42031;DHT22;27709;52.036;5.906;2022-08-25T12:19:58;37.50;37.00
42031;DHT22;27709;52.036;5.906;2022-08-25T12:24:55;37.70;37.20
42031;DHT22;27709;52.036;5.906;2022-08-25T12:30:18;37.70;36.90
42031;DHT22;27709;52.036;5.906;2022-08-25T12:35:56;37.50;37.20
42031;DHT22;27709;52.036;5.906;2022-08-25T12:38:49;37.40;37.00
42031;DHT22;27709;52.036;5.906;2022-08-25T12:41:25;37.10;37.40
42031;DHT22;27709;52.036;5.906;2022-08-25T12:43:53;37.00;37.70
42031;DHT22;27709;52.036;5.906;2022-08-25T12:46:35;36.90;37.60
42031;DHT22;27709;52.036;5.906;2022-08-25T12:51:42;36.70;37.10
42031;DHT22;27709;52.036;5.906;2022-08-25T12:54:34;36.60;37.50
42031;DHT22;27709;52.036;5.906;2022-08-25T12:57:42;36.50;38.50
42031;DHT22;27709;52.036;5.906;2022-08-25T13:08:36;36.20;38.00
42031;DHT22;27709;52.036;5.906;2022-08-25T13:11:19;36.20;38.00
42031;DHT22;27709;52.036;5.906;2022-08-25T13:16:36;36.00;38.40
42031;DHT22;27709;52.036;5.906;2022-08-25T13:19:04;35.70;38.40
42031;DHT22;27709;52.036;5.906;2022-08-25T13:21:38;35.50;38.80
42031;DHT22;27709;52.036;5.906;2022-08-25T13:24:07;35.50;38.60
42031;DHT22;27709;52.036;5.906;2022-08-25T13:26:38;35.50;38.80
42031;DHT22;27709;52.036;5.906;2022-08-25T13:31:35;35.50;38.60
42031;DHT22;27709;52.036;5.906;2022-08-25T13:34:14;35.50;38.60
42031;DHT22;27709;52.036;5.906;2022-08-25T13:36:43;35.60;38.70
42031;DHT22;27709;52.036;5.906;2022-08-25T13:39:28;35.60;38.30
42031;DHT22;27709;52.036;5.906;2022-08-25T13:41:56;35.60;38.60
42031;DHT22;27709;52.036;5.906;2022-08-25T13:44:27;35.70;38.40
42031;DHT22;27709;52.036;5.906;2022-08-25T13:47:33;35.80;38.50
42031;DHT22;27709;52.036;5.906;2022-08-25T13:52:50;35.80;38.30
42031;DHT22;27709;52.036;5.906;2022-08-25T13:55:22;35.80;38.40
42031;DHT22;27709;52.036;5.906;2022-08-25T13:57:49;35.80;38.30
42031;DHT22;27709;52.036;5.906;2022-08-25T14:00:26;35.80;38.30
42031;DHT22;27709;52.036;5.906;2022-08-25T14:02:53;35.90;37.90
42031;DHT22;27709;52.036;5.906;2022-08-25T14:05:32;35.80;37.80
42031;DHT22;27709;52.036;5.906;2022-08-25T14:07:59;35.80;37.80
42031;DHT22;27709;52.036;5.906;2022-08-25T14:10:45;35.70;38.20
42031;DHT22;27709;52.036;5.906;2022-08-25T14:13:15;35.80;38.10
42031;DHT22;27709;52.036;5.906;2022-08-25T14:15:43;35.70;38.50
42031;DHT22;27709;52.036;5.906;2022-08-25T14:18:27;35.60;37.90
42031;DHT22;27709;52.036;5.906;2022-08-25T14:20:55;35.40;38.30
42031;DHT22;27709;52.036;5.906;2022-08-25T14:23:25;35.30;38.60
42031;DHT22;27709;52.036;5.906;2022-08-25T14:25:53;35.30;38.10
42031;DHT22;27709;52.036;5.906;2022-08-25T14:28:22;35.30;38.30
42031;DHT22;27709;52.036;5.906;2022-08-25T14:30:58;35.30;38.20
42031;DHT22;27709;52.036;5.906;2022-08-25T14:33:32;35.30;37.90
42031;DHT22;27709;52.036;5.906;2022-08-25T14:35:59;35.30;37.90
42031;DHT22;27709;52.036;5.906;2022-08-25T14:38:27;35.30;37.90
42031;DHT22;27709;52.036;5.906;2022-08-25T14:40:52;35.30;38.00
42031;DHT22;27709;52.036;5.906;2022-08-25T14:43:18;35.30;37.30
42031;DHT22;27709;52.036;5.906;2022-08-25T14:45:46;35.30;37.50
42031;DHT22;27709;52.036;5.906;2022-08-25T14:48:40;35.20;37.40
42031;DHT22;27709;52.036;5.906;2022-08-25T14:51:06;35.20;37.60
42031;DHT22;27709;52.036;5.906;2022-08-25T14:53:33;35.10;37.80
42031;DHT22;27709;52.036;5.906;2022-08-25T14:55:58;34.90;37.60
42031;DHT22;27709;52.036;5.906;2022-08-25T14:58:24;34.90;37.90
42031;DHT22;27709;52.036;5.906;2022-08-25T15:00:50;34.80;38.20
42031;DHT22;27709;52.036;5.906;2022-08-25T15:03:20;34.80;38.10
42031;DHT22;27709;52.036;5.906;2022-08-25T15:05:49;34.80;38.00
42031;DHT22;27709;52.036;5.906;2022-08-25T15:08:15;34.80;38.00
42031;DHT22;27709;52.036;5.906;2022-08-25T15:10:59;34.80;38.50
42031;DHT22;27709;52.036;5.906;2022-08-25T15:13:24;34.80;38.20
42031;DHT22;27709;52.036;5.906;2022-08-25T15:15:52;34.80;38.10
42031;DHT22;27709;52.036;5.906;2022-08-25T15:18:17;34.70;38.00
42031;DHT22;27709;52.036;5.906;2022-08-25T15:20:43;34.70;38.10
42031;DHT22;27709;52.036;5.906;2022-08-25T15:23:09;34.60;38.40
42031;DHT22;27709;52.036;5.906;2022-08-25T15:25:35;34.60;38.30
42031;DHT22;27709;52.036;5.906;2022-08-25T15:28:05;34.50;38.30
42031;DHT22;27709;52.036;5.906;2022-08-25T15:30:31;34.50;38.50
42031;DHT22;27709;52.036;5.906;2022-08-25T15:32:56;34.50;38.60
42031;DHT22;27709;52.036;5.906;2022-08-25T15:35:22;34.50;38.30
42031;DHT22;27709;52.036;5.906;2022-08-25T15:37:47;34.50;38.20
42031;DHT22;27709;52.036;5.906;2022-08-25T15:40:13;34.30;38.20
42031;DHT22;27709;52.036;5.906;2022-08-25T15:42:39;34.30;38.50
42031;DHT22;27709;52.036;5.906;2022-08-25T15:45:05;34.20;38.40
42031;DHT22;27709;52.036;5.906;2022-08-25T15:47:31;34.10;38.60
42031;DHT22;27709;52.036;5.906;2022-08-25T15:50:10;33.90;39.00
42031;DHT22;27709;52.036;5.906;2022-08-25T15:52:36;33.70;39.00
42031;DHT22;27709;52.036;5.906;2022-08-25T15:55:02;33.60;39.30
42031;DHT22;27709;52.036;5.906;2022-08-25T15:57:28;33.50;39.40
42031;DHT22;27709;52.036;5.906;2022-08-25T15:59:54;33.40;39.40
42031;DHT22;27709;52.036;5.906;2022-08-25T16:02:20;33.30;39.70
42031;DHT22;27709;52.036;5.906;2022-08-25T16:04:46;33.10;39.90
42031;DHT22;27709;52.036;5.906;2022-08-25T16:07:12;33.20;40.30
42031;DHT22;27709;52.036;5.906;2022-08-25T16:09:37;33.10;40.20
42031;DHT22;27709;52.036;5.906;2022-08-25T16:12:03;33.00;40.30
42031;DHT22;27709;52.036;5.906;2022-08-25T16:14:29;33.00;40.40
42031;DHT22;27709;52.036;5.906;2022-08-25T16:16:55;32.90;41.20
42031;DHT22;27709;52.036;5.906;2022-08-25T16:19:21;32.80;41.40
42031;DHT22;27709;52.036;5.906;2022-08-25T16:21:48;32.70;41.50
42031;DHT22;27709;52.036;5.906;2022-08-25T16:24:13;32.60;41.40
42031;DHT22;27709;52.036;5.906;2022-08-25T16:26:39;32.50;41.20
42031;DHT22;27709;52.036;5.906;2022-08-25T16:29:08;32.40;41.40
42031;DHT22;27709;52.036;5.906;2022-08-25T16:31:34;32.30;41.60
42031;DHT22;27709;52.036;5.906;2022-08-25T16:34:00;32.20;41.90
42031;DHT22;27709;52.036;5.906;2022-08-25T16:36:26;32.10;43.10
42031;DHT22;27709;52.036;5.906;2022-08-25T16:38:53;32.00;43.00
42031;DHT22;27709;52.036;5.906;2022-08-25T16:41:21;31.90;42.80
42031;DHT22;27709;52.036;5.906;2022-08-25T16:43:47;31.90;42.80
42031;DHT22;27709;52.036;5.906;2022-08-25T16:46:16;31.80;42.80
42031;DHT22;27709;52.036;5.906;2022-08-25T16:48:42;31.70;43.20
42031;DHT22;27709;52.036;5.906;2022-08-25T16:51:13;31.70;43.30
42031;DHT22;27709;52.036;5.906;2022-08-25T16:53:40;31.70;43.30
42031;DHT22;27709;52.036;5.906;2022-08-25T16:56:24;31.60;43.00
42031;DHT22;27709;52.036;5.906;2022-08-25T16:58:58;31.50;43.00
42031;DHT22;27709;52.036;5.906;2022-08-25T17:01:25;31.40;43.30
42031;DHT22;27709;52.036;5.906;2022-08-25T17:03:56;31.40;44.00
42031;DHT22;27709;52.036;5.906;2022-08-25T17:06:24;31.40;44.50
42031;DHT22;27709;52.036;5.906;2022-08-25T17:08:51;31.30;44.90
42031;DHT22;27709;52.036;5.906;2022-08-25T17:11:19;31.20;45.20